Osage, Iowa
Current Conditions -  °F | °C
As of 2:55 PM on Friday 19 Dec 2014 (Local Time) from KCCY Reporting Station
Overcast Overcast  
Wind Chill: 23°   Ceiling: 3400
Heat Index: 30°   Visibility: 8mi
Dew Point: 25°   Wind: 7mph
Humidity: 80%   Direction: 150°SSE
Pressure: 30.22"   Gusts: NA
Location:  43.28°N, 92.81°W
Report Text: KCCY 192055Z AUTO 15006KT 8SM SCT015 SCT026 OVC034 M01/M04 A3022 RMK AO2
Loading
Personal Weather Stations






























Interactive Weather Map New forecast layout! Learn more

10-Day Weather Forecast

Advertisements
Track Severe Weather on mobile